This is the latest recevied weather packets stored in our database for station/object SP9MLI-1. If no packets are shown the sender has not sent any weather packets the latest 10 day(s).
| Time | Temp. | Humidity | Pressure | Rain* | Wind** | Luminosity | Snow |
|---|---|---|---|---|---|---|---|
| 1778222292 | 10° C | 77% | 1019.8 hPa | 0 mm | - | - | - |
| 1778221392 | 9.44° C | 81% | 1019.4 hPa | 0 mm | - | - | - |
| 1778220492 | 9.44° C | 80% | 1019.1 hPa | 0 mm | - | - | - |
| 1778218691 | 7.22° C | 92% | 1018.4 hPa | 0 mm | - | - | - |
| 1778217792 | 7.22° C | 92% | 1018.4 hPa | 0 mm | - | - | - |
| 1778216892 | 7.22° C | 92% | 1018.4 hPa | 0 mm | - | - | - |
| 1778215992 | 7.22° C | 92% | 1018.4 hPa | 0 mm | - | - | - |
| 1778215092 | 7.22° C | 93% | 1018.4 hPa | 0 mm | - | - | - |
| 1778214192 | 7.22° C | 93% | 1018.1 hPa | 0 mm | - | - | - |
| 1778213292 | 6.67° C | 93% | 1017.7 hPa | 0 mm | - | - | - |
| 1778212392 | 6.67° C | 93% | 1017.7 hPa | 0 mm | - | - | - |
| 1778211491 | 6.11° C | 95% | 1017.7 hPa | 0 mm | - | - | - |
| 1778210592 | 6.11° C | 95% | 1017.4 hPa | 0 mm | - | - | - |
| 1778209692 | 6.11° C | 95% | 1017 hPa | 0 mm | - | - | - |
| 1778208792 | 5.56° C | 95% | 1017 hPa | 0 mm | - | - | - |
| 1778207892 | 5.56° C | 94% | 1017 hPa | 0 mm | - | - | - |
| 1778206992 | 6.11° C | 94% | 1017 hPa | 0 mm | - | - | - |
| 1778206093 | 6.11° C | 94% | 1017 hPa | 0 mm | - | - | - |
| 1778205194 | 6.11° C | 94% | 1017.4 hPa | 0 mm | - | - | - |
| 1778204293 | 6.11° C | 94% | 1017.4 hPa | 0 mm | - | - | - |
| 1778203394 | 6.11° C | 94% | 1017.4 hPa | 0 mm | - | - | - |
| 1778202493 | 6.11° C | 95% | 1017 hPa | 0 mm | - | - | - |
| 1778201594 | 6.11° C | 95% | 1017.4 hPa | 0 mm | - | - | - |
| 1778200693 | 6.11° C | 94% | 1017 hPa | 0 mm | - | - | - |
| 1778199793 | 6.11° C | 95% | 1017 hPa | 0 mm | - | - | - |
* Rain latest hour (hover to see other rain measurements)
** Current wind speed in m/s (hover to see current wind gust speed)